createdAt,value
2018-12-22T00:00:20.185Z,20.2
2018-12-22T00:01:09.392Z,20.1
2018-12-22T00:02:00.806Z,19.9
2018-12-22T00:02:50.631Z,19.8
2018-12-22T00:03:40.444Z,19.7
2018-12-22T00:04:30.589Z,19.6
2018-12-22T00:05:20.304Z,19.4
2018-12-22T00:06:10.326Z,19.4
2018-12-22T00:07:00.674Z,19.3
2018-12-22T00:07:51.351Z,19.1
2018-12-22T00:08:40.559Z,19.1
2018-12-22T00:09:30.274Z,18.9
2018-12-22T00:10:19.929Z,18.9
2018-12-22T00:11:09.329Z,18.8
2018-12-22T00:12:51.015Z,18.6
2018-12-22T00:13:41.112Z,18.5
2018-12-22T00:14:31.445Z,18.4
2018-12-22T00:32:43.148Z,16.9
2018-12-22T00:33:33.786Z,16.9
2018-12-22T00:34:24.073Z,16.8
2018-12-22T00:35:14.227Z,16.8
2018-12-22T00:36:03.667Z,16.8
2018-12-22T00:36:53.917Z,16.7
2018-12-22T00:37:44.525Z,16.6
2018-12-22T00:38:34.367Z,16.6
2018-12-22T00:39:24.334Z,16.6
2018-12-22T00:40:13.578Z,16.5
2018-12-22T00:41:03.672Z,16.4
2018-12-22T00:41:53.720Z,16.4
2018-12-22T00:42:44.447Z,16.4
2018-12-22T00:43:31.424Z,16.3
2018-12-22T00:44:23.897Z,16.3
2018-12-22T00:45:14.594Z,16.2
2018-12-22T00:46:03.333Z,16.2
2018-12-22T00:46:54.340Z,16.1
2018-12-22T00:47:43.927Z,16.1
2018-12-22T00:48:34.305Z,16.1
2018-12-22T00:49:24.300Z,16
2018-12-22T00:50:14.382Z,16
2018-12-22T00:51:03.328Z,15.9
2018-12-22T00:51:54.747Z,15.9
2018-12-22T00:52:44.043Z,15.8
2018-12-22T00:53:34.696Z,15.8
2018-12-22T00:54:26.908Z,15.8
2018-12-22T00:55:15.056Z,15.7
2018-12-22T00:56:04.560Z,15.7
2018-12-22T00:56:55.338Z,15.6
2018-12-22T00:57:44.393Z,15.6
2018-12-22T00:58:40.120Z,15.6
2018-12-22T00:59:24.983Z,15.5
2018-12-22T01:00:17.115Z,15.5
2018-12-22T01:01:04.960Z,15.5
2018-12-22T01:01:54.393Z,15.4
2018-12-22T01:02:45.896Z,15.4
2018-12-22T01:03:35.771Z,15.4
2018-12-22T01:04:26.163Z,15.3
2018-12-22T01:05:14.855Z,15.3
2018-12-22T01:06:05.683Z,15.3
2018-12-22T01:06:58.065Z,15.3
2018-12-22T01:07:45.756Z,15.2
2018-12-22T01:08:36.113Z,15.2
2018-12-22T01:09:25.893Z,15.1
2018-12-22T01:10:16.491Z,15.1
2018-12-22T01:11:06.578Z,15.1
2018-12-22T01:11:56.709Z,15.1
2018-12-22T01:12:46.386Z,15.1
2018-12-22T01:13:36.168Z,15.2
2018-12-22T01:14:26.568Z,15.2
2018-12-22T01:15:16.579Z,15.3
2018-12-22T01:16:07.183Z,15.4
2018-12-22T01:16:55.040Z,15.6
2018-12-22T01:17:46.523Z,15.9
2018-12-22T01:18:36.257Z,16.1
2018-12-22T01:19:26.072Z,16.4
2018-12-22T01:20:16.585Z,16.8
2018-12-22T01:21:57.562Z,17.3
2018-12-22T01:22:46.287Z,17.6
2018-12-22T01:23:36.577Z,17.9
2018-12-22T01:24:27.288Z,18.3
2018-12-22T01:26:07.270Z,19.1
2018-12-22T01:26:57.350Z,19.6
2018-12-22T01:27:47.984Z,20.1
2018-12-22T01:28:46.267Z,20.8
2018-12-22T01:29:26.472Z,28.1
2018-12-22T01:30:16.790Z,32.2
2018-12-22T01:31:07.959Z,36
2018-12-22T01:31:57.514Z,39
2018-12-22T01:32:48.333Z,41.2
2018-12-22T01:33:38.192Z,42.6
2018-12-22T01:34:27.589Z,43
2018-12-22T01:35:18.452Z,42.5
2018-12-22T01:36:08.027Z,41.4
2018-12-22T01:36:58.061Z,40.3
2018-12-22T01:37:47.362Z,39.2
2018-12-22T01:38:37.836Z,38.3
2018-12-22T01:39:27.434Z,37.5
2018-12-22T01:40:18.540Z,36.8
2018-12-22T01:41:08.840Z,36.1
2018-12-22T01:41:58.079Z,35.5
2018-12-22T01:42:48.459Z,35.1
2018-12-22T01:43:38.849Z,34.9
2018-12-22T01:44:28.532Z,35
2018-12-22T01:45:17.779Z,35.1
2018-12-22T01:46:07.734Z,35.4
2018-12-22T01:46:57.701Z,35.8
2018-12-22T01:47:48.485Z,37.6
2018-12-22T01:48:38.102Z,39.6
2018-12-22T01:49:30.660Z,41
2018-12-22T01:50:18.981Z,42.1
2018-12-22T01:51:09.159Z,42.8
2018-12-22T01:51:58.989Z,43.1
2018-12-22T01:52:49.134Z,42.9
2018-12-22T01:53:38.416Z,42.3
2018-12-22T01:54:28.679Z,41.4
2018-12-22T01:55:19.283Z,40.6
2018-12-22T01:56:09.305Z,39.8
2018-12-22T01:56:59.658Z,39.1
2018-12-22T01:57:49.116Z,38.4
2018-12-22T01:58:38.646Z,37.8
2018-12-22T01:59:29.323Z,37.2
2018-12-22T02:00:19.341Z,36.9
2018-12-22T02:01:09.480Z,36.7
2018-12-22T02:01:58.641Z,37.2
2018-12-22T02:02:49.803Z,39.3
2018-12-22T02:03:39.802Z,40.7
2018-12-22T02:04:29.618Z,41.6
2018-12-22T02:05:20.235Z,42.4
2018-12-22T02:06:10.542Z,42.8
2018-12-22T02:07:00.348Z,42.8
2018-12-22T02:07:50.360Z,42.4
2018-12-22T02:08:39.075Z,41.7
2018-12-22T02:09:29.797Z,40.9
2018-12-22T02:10:20.765Z,40.3
2018-12-22T02:11:10.878Z,39.6
2018-12-22T02:12:00.404Z,39.1
2018-12-22T02:12:50.172Z,38.5
2018-12-22T02:13:40.772Z,38.1
2018-12-22T02:14:31.138Z,39.2
2018-12-22T02:15:19.798Z,40.4
2018-12-22T02:16:10.410Z,41.1
2018-12-22T02:17:00.702Z,41.6
2018-12-22T02:17:51.352Z,41.9
2018-12-22T02:18:41.092Z,41.9
2018-12-22T02:19:30.947Z,41.7
2018-12-22T02:20:20.145Z,41.3
2018-12-22T02:21:11.141Z,40.8
2018-12-22T02:22:00.924Z,40.3
2018-12-22T02:22:50.857Z,39.8
2018-12-22T02:23:41.263Z,39.8
2018-12-22T02:24:30.695Z,40.8
2018-12-22T02:25:21.032Z,41.2
2018-12-22T02:26:10.539Z,41.4
2018-12-22T02:27:00.949Z,41.5
2018-12-22T02:27:51.475Z,41.4
2018-12-22T02:28:41.324Z,41.2
2018-12-22T02:29:32.488Z,40.9
2018-12-22T02:30:20.670Z,40.5
2018-12-22T02:31:11.096Z,40.9
2018-12-22T02:32:01.850Z,41.6
2018-12-22T02:32:52.261Z,41.9
2018-12-22T02:33:42.314Z,42.1
2018-12-22T02:34:31.481Z,42
2018-12-22T02:35:22.014Z,41.9
2018-12-22T02:36:12.102Z,41.6
2018-12-22T02:37:02.141Z,41.3
2018-12-22T02:37:51.735Z,40.8
2018-12-22T02:38:42.594Z,40.5
2018-12-22T02:39:32.669Z,41.4
2018-12-22T02:40:22.508Z,41.8
2018-12-22T02:41:12.266Z,42.1
2018-12-22T02:42:02.550Z,42.1
2018-12-22T02:42:51.993Z,42.1
2018-12-22T02:43:41.988Z,41.8
2018-12-22T02:44:32.919Z,41.5
2018-12-22T02:45:22.146Z,41.1
2018-12-22T02:46:12.645Z,40.7
2018-12-22T02:47:02.821Z,41.1
2018-12-22T02:47:53.242Z,41.6
2018-12-22T02:48:42.246Z,41.9
2018-12-22T02:49:32.564Z,41.9
2018-12-22T02:50:22.926Z,41.9
2018-12-22T02:51:12.413Z,41.8
2018-12-22T02:52:02.656Z,41.4
2018-12-22T02:52:53.203Z,41.1
2018-12-22T02:53:43.388Z,40.6
2018-12-22T02:54:33.378Z,41.1
2018-12-22T02:55:23.189Z,41.8
2018-12-22T02:56:13.276Z,42.1
2018-12-22T02:57:04.096Z,42.3
2018-12-22T02:57:53.273Z,42.3
2018-12-22T02:58:42.928Z,42.1
2018-12-22T02:59:33.920Z,41.9
2018-12-22T03:00:22.330Z,41.6
2018-12-22T03:01:12.940Z,41.1
2018-12-22T03:02:03.899Z,40.7
2018-12-22T03:02:53.638Z,41.4
2018-12-22T03:03:43.692Z,41.8
2018-12-22T03:04:33.246Z,42.1
2018-12-22T03:05:23.748Z,42.1
2018-12-22T03:06:14.167Z,42.3
2018-12-22T03:07:04.362Z,42.1
2018-12-22T03:07:54.216Z,41.9
2018-12-22T03:08:44.686Z,41.6
2018-12-22T03:09:34.710Z,41.2
2018-12-22T03:10:24.633Z,40.8
2018-12-22T03:11:14.275Z,40.9
2018-12-22T03:12:05.032Z,41.6
2018-12-22T03:12:54.165Z,41.9
2018-12-22T03:13:43.494Z,42.1
2018-12-22T03:14:34.138Z,42.2
2018-12-22T03:15:24.705Z,42.2
2018-12-22T03:16:14.193Z,42.1
2018-12-22T03:17:04.192Z,41.9
2018-12-22T03:17:54.974Z,41.6
2018-12-22T03:18:44.234Z,41.3
2018-12-22T03:19:34.819Z,41.8
2018-12-22T03:20:24.651Z,42.2
2018-12-22T03:21:13.822Z,42.4
2018-12-22T03:22:04.077Z,42.5
2018-12-22T03:22:54.562Z,42.4
2018-12-22T03:23:44.526Z,42.4
2018-12-22T03:24:34.695Z,42.1
2018-12-22T03:25:24.723Z,41.9
2018-12-22T03:26:15.596Z,41.5
2018-12-22T03:27:05.892Z,41.1
2018-12-22T03:27:56.401Z,41.1
2018-12-22T03:28:45.419Z,41.8
2018-12-22T03:29:35.851Z,42.1
2018-12-22T03:30:26.490Z,42.4
2018-12-22T03:31:16.239Z,42.4
2018-12-22T03:32:06.177Z,42.5
2018-12-22T03:32:55.659Z,42.4
2018-12-22T03:33:46.069Z,42.1
2018-12-22T03:34:35.559Z,41.9
2018-12-22T03:35:25.937Z,41.6
2018-12-22T03:36:16.793Z,41.1
2018-12-22T03:37:06.463Z,41.7
2018-12-22T03:37:57.233Z,42.3
2018-12-22T03:38:45.811Z,42.7
2018-12-22T03:39:35.266Z,42.9
2018-12-22T03:40:25.864Z,42.9
2018-12-22T03:41:17.111Z,42.8
2018-12-22T03:42:06.683Z,42.6
2018-12-22T03:42:56.358Z,42.3
2018-12-22T03:43:45.813Z,41.9
2018-12-22T03:44:35.386Z,41.5
2018-12-22T03:45:26.941Z,41.1
2018-12-22T03:46:16.679Z,40.8
2018-12-22T03:47:06.896Z,41.7
2018-12-22T03:47:56.150Z,42.3
2018-12-22T03:48:46.529Z,42.7
2018-12-22T03:49:37.069Z,42.9
2018-12-22T03:50:27.070Z,43.1
2018-12-22T03:51:16.570Z,43.1
2018-12-22T03:52:06.420Z,42.8
2018-12-22T03:52:57.397Z,42.4
2018-12-22T03:53:46.481Z,41.9
2018-12-22T03:54:37.407Z,41.5
2018-12-22T03:55:26.942Z,41.1
2018-12-22T03:56:17.199Z,40.6
2018-12-22T03:57:07.525Z,40.1
2018-12-22T03:57:57.012Z,41.3
2018-12-22T03:58:46.554Z,41.9
2018-12-22T03:59:37.986Z,42.4
2018-12-22T04:00:26.929Z,42.8
2018-12-22T04:01:18.127Z,43.1
2018-12-22T04:02:08.424Z,43.1
2018-12-22T04:02:57.769Z,42.9
2018-12-22T04:03:47.596Z,42.6
2018-12-22T04:04:38.487Z,42.3
2018-12-22T04:05:27.674Z,41.9
2018-12-22T04:06:18.086Z,41.6
2018-12-22T04:07:07.165Z,41.1
2018-12-22T04:07:58.286Z,40.7
2018-12-22T04:08:47.906Z,41.6
2018-12-22T04:09:37.882Z,42.3
2018-12-22T04:10:28.246Z,42.6
2018-12-22T04:11:18.225Z,42.9
2018-12-22T04:12:08.433Z,43.1
2018-12-22T04:12:57.563Z,43.2
2018-12-22T04:13:49.218Z,43.1
2018-12-22T04:14:38.359Z,42.8
2018-12-22T04:15:28.188Z,42.6
2018-12-22T04:16:17.456Z,42.3
2018-12-22T04:17:07.802Z,42
2018-12-22T04:17:58.740Z,41.7
2018-12-22T04:18:48.740Z,41.3
2018-12-22T04:19:37.250Z,40.9
2018-12-22T04:20:29.190Z,41.8
2018-12-22T04:21:19.535Z,42.3
2018-12-22T04:22:08.359Z,42.6
2018-12-22T04:22:59.154Z,42.8
2018-12-22T04:23:49.635Z,42.9
2018-12-22T04:24:39.184Z,42.9
2018-12-22T04:25:30.113Z,42.8
2018-12-22T04:26:18.018Z,42.5
2018-12-22T04:27:09.044Z,42.3
2018-12-22T04:28:00.043Z,42
2018-12-22T04:28:49.692Z,41.7
2018-12-22T04:29:43.719Z,41.3
2018-12-22T04:30:29.866Z,41.9
2018-12-22T04:31:19.859Z,42.5
2018-12-22T04:32:09.961Z,42.9
2018-12-22T04:32:59.398Z,43.2
2018-12-22T04:33:50.057Z,43.3
2018-12-22T04:34:39.881Z,43.3
2018-12-22T04:35:30.048Z,43.2
2018-12-22T04:36:19.768Z,42.9
2018-12-22T04:37:09.793Z,42.7
2018-12-22T04:38:00.336Z,42.4
2018-12-22T04:38:50.334Z,42.1
2018-12-22T04:39:39.991Z,41.8
2018-12-22T04:40:29.954Z,41.4
2018-12-22T04:41:19.752Z,42.1
2018-12-22T04:42:11.333Z,42.6
2018-12-22T04:43:00.666Z,42.9
2018-12-22T04:43:50.762Z,43.2
2018-12-22T04:44:40.447Z,43.3
2018-12-22T05:02:00.847Z,37.4
2018-12-22T05:02:50.624Z,37.6
2018-12-22T05:03:40.466Z,37.8
2018-12-22T05:04:30.976Z,37.9
2018-12-22T05:05:21.089Z,38.1
2018-12-22T05:06:11.403Z,38.1
2018-12-22T05:07:01.469Z,38.3
2018-12-22T05:07:50.940Z,38.3
2018-12-22T05:08:41.081Z,38.4
2018-12-22T05:09:31.200Z,38.5
2018-12-22T05:10:21.271Z,38.5
2018-12-22T05:11:11.013Z,38.6
2018-12-22T05:12:01.808Z,38.6
2018-12-22T05:12:50.424Z,38.6
2018-12-22T05:13:41.181Z,38.6
2018-12-22T05:14:32.081Z,38.7
2018-12-22T05:15:21.760Z,38.8
2018-12-22T05:16:12.106Z,38.8
2018-12-22T05:17:02.089Z,38.8
2018-12-22T05:17:51.570Z,38.8
2018-12-22T05:18:41.343Z,38.8
2018-12-22T05:19:31.946Z,38.8
2018-12-22T05:20:24.163Z,38.8
2018-12-22T05:21:12.638Z,38.8
2018-12-22T05:22:01.610Z,38.8
2018-12-22T05:22:51.980Z,38.8
2018-12-22T05:23:42.585Z,38.8
2018-12-22T05:24:32.385Z,38.8
2018-12-22T05:25:21.826Z,38.8
2018-12-22T05:26:11.575Z,38.8
2018-12-22T05:27:02.475Z,38.8
2018-12-22T05:27:52.249Z,38.8
2018-12-22T05:28:42.305Z,38.8
2018-12-22T05:29:32.088Z,38.7
2018-12-22T05:30:22.954Z,38.7
2018-12-22T05:31:12.503Z,38.7
2018-12-22T05:32:03.149Z,38.7
2018-12-22T05:32:53.554Z,38.7
2018-12-22T05:33:42.976Z,38.6
2018-12-22T05:34:33.714Z,38.6
2018-12-22T05:35:22.945Z,38.6
2018-12-22T05:36:13.081Z,38.5
2018-12-22T05:37:03.746Z,38.5
2018-12-22T05:37:52.931Z,38.5
2018-12-22T05:38:41.611Z,38.4
2018-12-22T05:39:33.721Z,38.4
2018-12-22T05:40:22.836Z,38.4
2018-12-22T05:41:13.453Z,38.4
2018-12-22T05:42:03.063Z,38.4
2018-12-22T05:42:53.578Z,38.4
2018-12-22T05:43:43.378Z,38.4
2018-12-22T05:44:33.505Z,38.3
2018-12-22T05:45:23.988Z,38.3
2018-12-22T05:46:13.270Z,38.3
2018-12-22T05:47:03.868Z,38.3
2018-12-22T05:47:53.408Z,38.3
2018-12-22T05:48:43.942Z,38.2
2018-12-22T05:49:32.657Z,38.1
2018-12-22T05:50:24.125Z,38.1
2018-12-22T05:51:13.665Z,38.1
2018-12-22T05:52:03.685Z,38.1
2018-12-22T05:52:54.187Z,38
2018-12-22T05:53:44.000Z,37.9
2018-12-22T05:54:34.925Z,37.9
2018-12-22T05:55:24.455Z,37.9
2018-12-22T05:56:15.085Z,37.9
2018-12-22T05:57:04.290Z,37.9
2018-12-22T05:57:54.818Z,37.8
2018-12-22T05:58:44.845Z,37.9
2018-12-22T05:59:34.414Z,37.8
2018-12-22T06:00:23.218Z,37.8
2018-12-22T06:01:14.407Z,37.8
2018-12-22T06:02:04.356Z,37.7
2018-12-22T06:02:55.172Z,37.6
2018-12-22T06:03:45.217Z,37.6
2018-12-22T06:04:34.762Z,37.6
2018-12-22T06:05:25.717Z,37.6
2018-12-22T06:06:14.690Z,37.6
2018-12-22T06:07:04.587Z,37.5
2018-12-22T06:07:54.977Z,37.5
2018-12-22T06:08:44.725Z,37.4
2018-12-22T06:09:35.665Z,37.4
2018-12-22T06:10:25.704Z,37.4
2018-12-22T06:11:14.632Z,37.4
2018-12-22T06:12:06.132Z,37.3
2018-12-22T06:12:54.757Z,37.3
2018-12-22T06:13:46.232Z,37.3
2018-12-22T06:14:36.362Z,37.2
2018-12-22T06:15:24.071Z,37.2
2018-12-22T06:16:14.201Z,37.1
2018-12-22T06:17:06.424Z,37.1
2018-12-22T06:17:56.031Z,37.1
2018-12-22T06:18:45.985Z,37.1
2018-12-22T06:19:35.751Z,37
2018-12-22T06:20:25.831Z,37
2018-12-22T06:21:16.126Z,36.9
2018-12-22T06:22:05.260Z,36.9
2018-12-22T06:22:55.211Z,36.8
2018-12-22T06:23:45.778Z,36.8
2018-12-22T06:24:36.296Z,36.8
2018-12-22T06:25:26.856Z,36.8
2018-12-22T06:26:16.242Z,36.8
2018-12-22T06:27:05.541Z,36.7
2018-12-22T06:27:56.295Z,36.6
2018-12-22T06:28:46.636Z,36.6
2018-12-22T06:29:37.106Z,36.6
2018-12-22T06:30:26.755Z,36.6
2018-12-22T06:31:15.401Z,36.6
2018-12-22T06:32:06.833Z,36.6
2018-12-22T06:32:56.388Z,36.6
2018-12-22T06:33:47.008Z,36.5
2018-12-22T06:34:37.025Z,36.5
2018-12-22T06:35:26.843Z,36.5
2018-12-22T06:36:16.851Z,36.4
2018-12-22T06:37:07.623Z,36.4
2018-12-22T06:37:57.015Z,36.4
2018-12-22T06:38:47.516Z,36.3
2018-12-22T06:39:37.358Z,36.3
2018-12-22T06:40:26.833Z,36.3
2018-12-22T06:41:17.650Z,36.3
2018-12-22T06:42:07.733Z,36.2
2018-12-22T06:42:57.509Z,36.1
2018-12-22T06:43:47.124Z,36.1
2018-12-22T06:44:38.028Z,36.1
2018-12-22T06:45:27.317Z,36.1
2018-12-22T06:46:17.965Z,36
2018-12-22T06:47:08.445Z,36
2018-12-22T06:47:59.925Z,35.9
2018-12-22T06:48:47.492Z,35.9
2018-12-22T06:49:38.559Z,35.9
2018-12-22T06:50:28.085Z,35.9
2018-12-22T06:51:18.199Z,35.8
2018-12-22T06:52:08.684Z,35.8
2018-12-22T06:52:58.344Z,35.8
2018-12-22T06:53:50.626Z,35.8
2018-12-22T06:54:38.809Z,35.8
2018-12-22T06:55:28.489Z,35.7
2018-12-22T06:56:18.245Z,35.6
2018-12-22T06:57:08.268Z,35.6
2018-12-22T06:57:58.677Z,35.6
2018-12-22T06:58:49.047Z,35.5
2018-12-22T06:59:39.046Z,35.5
2018-12-22T07:00:28.276Z,35.5
2018-12-22T07:01:19.551Z,35.4
2018-12-22T07:02:09.697Z,35.4
2018-12-22T07:02:59.406Z,35.4
2018-12-22T07:03:49.278Z,35.3
2018-12-22T07:04:38.881Z,35.3
2018-12-22T07:05:28.299Z,35.2
2018-12-22T07:06:19.428Z,35.2
2018-12-22T07:07:08.970Z,35.1
2018-12-22T07:07:58.741Z,35.1
2018-12-22T07:08:49.416Z,35.1
2018-12-22T07:09:38.595Z,35.1
2018-12-22T07:10:29.863Z,35
2018-12-22T07:11:20.080Z,34.9
2018-12-22T07:12:09.013Z,34.9
2018-12-22T07:12:58.176Z,34.9
2018-12-22T07:13:49.199Z,34.9
2018-12-22T07:14:39.481Z,34.8
2018-12-22T07:15:29.245Z,34.8
2018-12-22T07:16:19.880Z,34.8
2018-12-22T07:17:10.020Z,34.8
2018-12-22T07:18:00.313Z,34.7
2018-12-22T07:18:48.943Z,34.6
2018-12-22T07:19:39.830Z,34.6
2018-12-22T07:20:29.567Z,34.6
2018-12-22T07:21:20.215Z,34.5
2018-12-22T07:22:09.210Z,34.5
2018-12-22T07:23:00.065Z,34.5
2018-12-22T07:23:50.335Z,34.5
2018-12-22T07:24:39.970Z,34.5
2018-12-22T07:25:30.455Z,34.4
2018-12-22T07:26:19.924Z,34.4
2018-12-22T07:27:09.663Z,34.4
2018-12-22T07:28:00.926Z,34.4
2018-12-22T07:28:50.710Z,34.4
2018-12-22T07:29:40.470Z,34.4
2018-12-22T07:30:35.591Z,34.4
2018-12-22T07:31:20.308Z,34.4
2018-12-22T07:32:10.949Z,34.4
2018-12-22T07:33:06.814Z,34.5
2018-12-22T07:33:50.484Z,34.6
2018-12-22T07:34:40.544Z,34.7
2018-12-22T07:35:30.961Z,34.9
2018-12-22T07:36:21.551Z,35.1
2018-12-22T07:37:11.529Z,35.4
2018-12-22T07:38:00.749Z,35.7
2018-12-22T07:38:52.076Z,36.9
2018-12-22T07:39:41.511Z,39.6
2018-12-22T07:40:31.089Z,41.3
2018-12-22T07:41:20.793Z,42.6
2018-12-22T07:42:11.351Z,43.4
2018-12-22T07:43:01.223Z,43.7
2018-12-22T07:43:51.206Z,43.4
2018-12-22T07:44:41.301Z,42.7
2018-12-22T07:45:31.081Z,41.8
2018-12-22T07:46:21.691Z,40.8
2018-12-22T07:47:11.693Z,40
2018-12-22T07:48:01.352Z,39.3
2018-12-22T07:48:52.223Z,38.6
2018-12-22T07:49:41.088Z,37.9
2018-12-22T07:50:31.685Z,37.4
2018-12-22T07:51:21.808Z,37
2018-12-22T07:52:11.832Z,37.7
2018-12-22T07:53:02.315Z,39.8
2018-12-22T07:53:51.829Z,41.1
2018-12-22T07:54:44.412Z,42
2018-12-22T07:55:31.986Z,42.6
2018-12-22T07:56:21.979Z,42.9
2018-12-22T07:57:12.836Z,42.8
2018-12-22T07:58:04.652Z,42.4
2018-12-22T07:58:52.733Z,41.8
2018-12-22T07:59:43.143Z,41.1
2018-12-22T08:00:41.035Z,40.5
2018-12-22T08:01:24.978Z,39.8
2018-12-22T08:02:12.970Z,39.3
2018-12-22T08:03:03.536Z,38.7
2018-12-22T08:03:53.177Z,38.6
2018-12-22T08:04:43.175Z,40.3
2018-12-22T08:05:41.252Z,41.4
2018-12-22T08:06:22.840Z,42.1
2018-12-22T08:07:13.009Z,42.5
2018-12-22T08:08:02.282Z,42.8
2018-12-22T08:08:52.996Z,42.7
2018-12-22T08:09:43.449Z,42.4
2018-12-22T08:10:32.769Z,41.8
2018-12-22T08:11:23.009Z,41.3
2018-12-22T08:12:12.774Z,40.7
2018-12-22T08:13:03.388Z,40.1
2018-12-22T08:13:53.437Z,39.6
2018-12-22T08:14:42.749Z,39
2018-12-22T08:15:33.844Z,40.4
2018-12-22T08:16:24.467Z,41.3
2018-12-22T08:17:13.689Z,41.8
2018-12-22T08:18:03.982Z,42.2
2018-12-22T08:18:53.811Z,42.4
2018-12-22T08:19:43.916Z,42.5
2018-12-22T08:20:33.689Z,42.3
2018-12-22T08:21:23.521Z,41.9
2018-12-22T08:22:14.922Z,41.4
2018-12-22T08:23:03.705Z,40.9
2018-12-22T08:23:53.658Z,40.4
2018-12-22T08:24:43.901Z,40.5
2018-12-22T08:25:33.960Z,41.3
2018-12-22T08:26:24.881Z,41.8
2018-12-22T08:27:14.061Z,42
2018-12-22T08:28:03.493Z,42.2
2018-12-22T08:28:53.727Z,42.2
2018-12-22T08:29:44.703Z,42.1
2018-12-22T08:30:43.280Z,41.8
2018-12-22T08:31:27.026Z,41.4
2018-12-22T08:32:15.253Z,41.1
2018-12-22T08:33:05.581Z,41.4
2018-12-22T08:33:53.818Z,41.9
2018-12-22T08:34:44.591Z,42.1
2018-12-22T08:35:35.153Z,42.1
2018-12-22T08:36:23.756Z,42
2018-12-22T08:37:15.603Z,41.8
2018-12-22T08:38:04.538Z,41.6
2018-12-22T08:38:55.850Z,41.3
2018-12-22T08:39:45.588Z,41.3
2018-12-22T08:40:36.093Z,42.1
2018-12-22T08:41:24.773Z,42.4
2018-12-22T08:42:15.677Z,42.6
2018-12-22T08:43:05.718Z,42.5
2018-12-22T08:43:55.584Z,42.3
2018-12-22T08:44:48.036Z,41.9
2018-12-22T08:45:35.618Z,41.6
2018-12-22T08:46:25.633Z,41.3
2018-12-22T08:47:16.495Z,40.9
2018-12-22T08:48:06.020Z,40.9
2018-12-22T08:48:55.260Z,41.7
2018-12-22T08:49:45.676Z,42.1
2018-12-22T08:50:35.937Z,42.2
2018-12-22T08:51:25.705Z,42.2
2018-12-22T08:52:16.021Z,42
2018-12-22T08:53:05.975Z,41.8
2018-12-22T08:53:56.426Z,41.6
2018-12-22T08:54:46.765Z,41.2
2018-12-22T08:55:36.577Z,41.9
2018-12-22T08:56:26.569Z,42.4
2018-12-22T08:57:16.085Z,42.5
2018-12-22T08:58:07.377Z,42.4
2018-12-22T08:58:56.797Z,42.3
2018-12-22T08:59:47.149Z,41.9
2018-12-22T09:00:37.171Z,41.5
2018-12-22T09:16:26.725Z,41.1
2018-12-22T09:17:17.167Z,40.8
2018-12-22T09:18:07.185Z,41.7
2018-12-22T09:18:57.215Z,42.1
2018-12-22T09:19:47.275Z,42.3
2018-12-22T09:20:39.430Z,42.3
2018-12-22T09:21:27.968Z,42.2
2018-12-22T09:22:17.110Z,41.9
2018-12-22T09:23:07.766Z,41.6
2018-12-22T09:23:57.585Z,41.4
2018-12-22T09:24:47.864Z,41.1
2018-12-22T09:25:37.367Z,41.9
2018-12-22T09:26:27.802Z,42.2
2018-12-22T09:27:17.480Z,42.3
2018-12-22T09:28:08.051Z,42.3
2018-12-22T09:28:58.187Z,42.1
2018-12-22T09:29:47.886Z,41.8
2018-12-22T09:30:37.244Z,41.6
2018-12-22T09:31:26.588Z,41.3
2018-12-22T09:32:17.814Z,41.3
2018-12-22T09:33:08.532Z,42.1
2018-12-22T09:33:56.317Z,42.4
2018-12-22T09:34:47.661Z,42.5
2018-12-22T09:35:38.372Z,42.4
2018-12-22T09:36:28.626Z,42.3
2018-12-22T09:37:18.756Z,42
2018-12-22T09:38:08.176Z,41.7
2018-12-22T09:38:58.041Z,41.4
2018-12-22T09:39:48.586Z,41.1
2018-12-22T09:40:38.745Z,41.8
2018-12-22T09:41:27.655Z,42.3
2018-12-22T09:42:17.473Z,42.4
2018-12-22T09:43:08.581Z,42.4
2018-12-22T09:43:58.946Z,42.3
2018-12-22T09:44:48.431Z,41.9
2018-12-22T09:45:38.107Z,41.6
2018-12-22T09:46:27.886Z,41.3
2018-12-22T09:47:18.310Z,41
2018-12-22T09:48:08.880Z,41.4
2018-12-22T09:48:59.235Z,42
2018-12-22T09:49:49.093Z,42.3
2018-12-22T09:50:38.818Z,42.3
2018-12-22T09:51:29.088Z,42.3
2018-12-22T09:52:18.895Z,42.2
2018-12-22T09:53:11.983Z,42
2018-12-22T09:54:00.212Z,41.8
2018-12-22T09:54:49.854Z,41.7
2018-12-22T09:55:39.982Z,42.4
2018-12-22T09:56:30.061Z,42.6
2018-12-22T09:57:19.515Z,42.8
2018-12-22T09:58:09.553Z,42.8
2018-12-22T09:59:00.098Z,42.6
2018-12-22T09:59:49.617Z,42.3
2018-12-22T10:00:39.209Z,42
2018-12-22T10:01:29.787Z,41.7
2018-12-22T10:02:19.320Z,41.4
2018-12-22T10:03:10.198Z,42.3
2018-12-22T10:03:59.476Z,42.7
2018-12-22T10:04:49.272Z,42.9
2018-12-22T10:05:39.962Z,43
2018-12-22T10:06:30.117Z,43
2018-12-22T10:07:19.744Z,42.8
2018-12-22T10:08:11.027Z,42.6
2018-12-22T10:08:59.441Z,42.2
2018-12-22T10:09:50.604Z,41.9
2018-12-22T10:10:40.077Z,41.5
2018-12-22T10:11:30.122Z,41.6
2018-12-22T10:12:20.254Z,42.1
2018-12-22T10:13:10.556Z,42.1
2018-12-22T10:14:00.969Z,41.9
2018-12-22T10:14:50.085Z,41.6
2018-12-22T10:15:40.529Z,41.3
2018-12-22T10:16:31.525Z,40.9
2018-12-22T10:17:21.093Z,40.4
2018-12-22T10:18:11.829Z,39.9
2018-12-22T10:19:01.284Z,39.4
2018-12-22T10:19:51.341Z,38.9
2018-12-22T10:20:40.774Z,38.4
2018-12-22T10:21:31.641Z,38
2018-12-22T10:22:23.754Z,37.7
2018-12-22T10:23:11.446Z,37.5
2018-12-22T10:24:01.372Z,37.4
2018-12-22T10:24:51.380Z,37.6
2018-12-22T10:25:42.036Z,37.6
2018-12-22T10:26:31.965Z,37.8
2018-12-22T10:27:23.998Z,37.9
2018-12-22T10:28:12.126Z,38.1
2018-12-22T10:29:02.168Z,38.3
2018-12-22T10:29:50.842Z,38.4
2018-12-22T10:30:41.975Z,38.5
2018-12-22T10:31:32.086Z,38.6
2018-12-22T10:32:20.988Z,38.7
2018-12-22T10:33:11.888Z,38.8
2018-12-22T10:34:02.662Z,38.9
2018-12-22T10:34:52.084Z,38.9
2018-12-22T10:35:42.201Z,38.9
2018-12-22T10:36:32.675Z,39
2018-12-22T10:37:22.217Z,39
2018-12-22T10:38:11.672Z,39.1
2018-12-22T10:39:02.821Z,39.1
2018-12-22T10:39:52.647Z,39.1
2018-12-22T10:40:42.513Z,39.1
2018-12-22T10:41:31.691Z,39.1
2018-12-22T10:42:22.447Z,39.1
2018-12-22T10:43:11.292Z,39.1
2018-12-22T10:44:02.517Z,39.1
2018-12-22T10:44:52.819Z,39.2
2018-12-22T10:45:42.742Z,39.2
2018-12-22T10:46:32.884Z,39.2
2018-12-22T10:47:23.145Z,39.3
2018-12-22T10:48:12.817Z,39.3
2018-12-22T10:49:03.517Z,39.3
2018-12-22T10:49:53.439Z,39.2
2018-12-22T10:50:43.918Z,39.3
2018-12-22T10:51:33.784Z,39.3
2018-12-22T10:52:22.566Z,39.3
2018-12-22T10:53:12.546Z,39.3
2018-12-22T10:54:03.174Z,39.2
2018-12-22T10:54:53.142Z,39.2
2018-12-22T10:55:43.244Z,39.2
2018-12-22T10:56:32.453Z,39.1
2018-12-22T10:57:24.151Z,39.1
2018-12-22T10:58:13.210Z,39.1
2018-12-22T10:59:03.800Z,39.1
2018-12-22T10:59:53.490Z,39.1
2018-12-22T11:00:43.630Z,39
2018-12-22T11:01:35.320Z,39
2018-12-22T11:02:25.670Z,38.9
2018-12-22T11:03:14.290Z,38.9
2018-12-22T11:04:03.878Z,38.9
2018-12-22T11:04:53.560Z,38.9
2018-12-22T11:05:43.979Z,38.8
2018-12-22T11:06:33.664Z,38.8
2018-12-22T11:07:23.474Z,38.8
2018-12-22T11:08:13.802Z,38.8
2018-12-22T11:09:03.966Z,38.6
2018-12-22T11:09:53.642Z,38.6
2018-12-22T11:10:44.329Z,38.4
2018-12-22T11:11:34.311Z,38.3
2018-12-22T11:12:24.097Z,38.3
2018-12-22T11:13:14.469Z,38.3
2018-12-22T11:14:03.734Z,38.2
2018-12-22T11:14:54.349Z,38.2
2018-12-22T11:15:44.496Z,38.1
2018-12-22T11:16:34.211Z,38.1
2018-12-22T11:17:23.989Z,38.1
2018-12-22T11:18:14.239Z,38
2018-12-22T11:19:05.077Z,38
2018-12-22T11:19:55.437Z,37.9
2018-12-22T11:20:44.949Z,37.9
2018-12-22T11:21:35.041Z,37.9
2018-12-22T11:22:25.792Z,37.9
2018-12-22T11:23:24.716Z,37.9
2018-12-22T11:24:08.001Z,37.8
2018-12-22T11:24:54.902Z,37.8
2018-12-22T11:25:45.310Z,37.8
2018-12-22T11:26:35.758Z,37.7
2018-12-22T11:27:26.138Z,37.7
2018-12-22T11:28:15.877Z,37.6
2018-12-22T11:29:05.168Z,37.6
2018-12-22T11:29:56.005Z,37.6
2018-12-22T11:30:45.630Z,37.5
2018-12-22T11:31:44.190Z,37.5
2018-12-22T11:32:26.197Z,37.4
2018-12-22T11:33:15.891Z,37.4
2018-12-22T11:34:05.043Z,37.4
2018-12-22T11:34:55.712Z,37.4
2018-12-22T11:35:45.753Z,37.3
2018-12-22T11:36:34.882Z,37.3
2018-12-22T11:37:26.690Z,37.3
2018-12-22T11:38:16.145Z,37.2
2018-12-22T11:39:06.002Z,37.2
2018-12-22T11:39:56.212Z,37.1
2018-12-22T11:40:46.589Z,37.1
2018-12-22T11:41:36.097Z,37.1
2018-12-22T11:42:27.642Z,37
2018-12-22T11:43:17.192Z,37
2018-12-22T11:44:05.868Z,36.9
2018-12-22T11:44:57.042Z,36.9
2018-12-22T11:45:47.772Z,36.8
2018-12-22T11:46:36.959Z,36.8
2018-12-22T11:47:27.806Z,36.8
2018-12-22T11:48:17.840Z,36.7
2018-12-22T11:49:07.046Z,36.7
2018-12-22T11:49:57.224Z,36.6
2018-12-22T11:50:48.224Z,36.6
2018-12-22T11:51:37.087Z,36.6
2018-12-22T11:52:27.298Z,36.5
2018-12-22T11:53:17.384Z,36.4
2018-12-22T11:54:07.384Z,36.4
2018-12-22T11:54:57.723Z,36.4
2018-12-22T11:55:46.669Z,36.3
2018-12-22T11:56:37.641Z,36.3
2018-12-22T11:57:27.729Z,36.3
2018-12-22T11:58:18.191Z,36.3
2018-12-22T11:59:08.199Z,36.3
2018-12-22T11:59:58.351Z,36.2